Time;durP1;ratioP1;P1;durP2;ratioP2;P2;SDS_P1;SDS_P2;PMS_P1;PMS_P2;Temp;Humidity;BMP_temperature;BMP_pressure;BME280_temperature;BME280_humidity;BME280_pressure;Samples;Min_cycle;Max_cycle;Signal;HPM_P1;HPM_P2
2021/07/10 00:00:35;;;;;;;16.87;15.37;;;15.40;99.90;;;;;;5028255;28;20473;-59
2021/07/10 00:03:03;;;;;;;17.03;15.40;;;15.40;99.90;;;;;;5032140;28;20481;-57
2021/07/10 00:05:32;;;;;;;16.87;15.33;;;15.40;99.90;;;;;;5021943;28;20455;-60
2021/07/10 00:08:02;;;;;;;17.30;15.80;;;15.50;99.90;;;;;;5032386;28;20463;-60
2021/07/10 00:10:29;;;;;;;16.47;15.03;;;15.40;99.90;;;;;;5027341;28;20975;-58
2021/07/10 00:12:58;;;;;;;16.07;14.37;;;15.50;99.90;;;;;;5021154;28;20550;-60
2021/07/10 00:15:26;;;;;;;18.43;16.70;;;15.50;99.90;;;;;;5038098;28;20470;-58
2021/07/10 00:17:54;;;;;;;17.50;15.97;;;15.50;99.90;;;;;;5039500;28;20481;-60
2021/07/10 00:20:22;;;;;;;17.13;15.73;;;15.40;99.90;;;;;;5039754;28;20963;-60
2021/07/10 00:22:49;;;;;;;17.23;15.33;;;15.40;99.90;;;;;;5026565;28;20462;-61
2021/07/10 00:25:18;;;;;;;18.10;15.37;;;15.40;99.90;;;;;;5039410;28;20485;-61
2021/07/10 00:27:47;;;;;;;16.30;14.80;;;15.40;99.90;;;;;;5039756;28;20503;-59
2021/07/10 00:30:21;;;;;;;16.43;15.03;;;15.30;99.90;;;;;;5038551;28;20475;-61
2021/07/10 00:32:52;;;;;;;17.87;16.17;;;15.20;99.90;;;;;;5033333;28;21010;-60
2021/07/10 00:35:22;;;;;;;17.40;15.90;;;15.20;99.90;;;;;;5039459;28;20540;-59
2021/07/10 00:37:52;;;;;;;16.37;14.93;;;15.20;99.90;;;;;;5039367;28;20540;-61
2021/07/10 00:40:19;;;;;;;18.17;16.60;;;15.20;99.90;;;;;;5024498;28;20446;-61
2021/07/10 00:42:49;;;;;;;17.00;15.40;;;15.20;99.90;;;;;;5020343;28;20468;-60
2021/07/10 00:45:18;;;;;;;18.80;17.20;;;15.10;99.90;;;;;;5019564;28;20526;-60
2021/07/10 00:47:45;;;;;;;16.60;15.30;;;15.10;99.90;;;;;;5020172;28;20557;-59
2021/07/10 00:50:15;;;;;;;17.67;16.17;;;15.00;99.90;;;;;;5020020;28;20622;-61
2021/07/10 00:52:42;;;;;;;16.87;15.07;;;14.90;99.90;;;;;;5020136;28;20474;-60
2021/07/10 00:55:11;;;;;;;15.67;14.23;;;14.90;99.90;;;;;;5002257;28;20468;-60
2021/07/10 00:57:39;;;;;;;14.83;13.57;;;14.90;99.90;;;;;;5020153;28;20468;-60
2021/07/10 01:00:09;;;;;;;15.77;14.33;;;14.80;99.90;;;;;;5024854;28;20459;-60
2021/07/10 01:02:41;;;;;;;16.13;14.60;;;14.80;99.90;;;;;;5039383;28;20486;-60
2021/07/10 01:05:11;;;;;;;15.73;14.13;;;14.70;99.90;;;;;;5025699;28;20903;-61
2021/07/10 01:07:39;;;;;;;15.97;14.57;;;14.60;99.90;;;;;;5017500;28;20503;-57
2021/07/10 01:10:07;;;;;;;15.70;14.27;;;14.60;99.90;;;;;;5022203;28;20479;-60
2021/07/10 01:12:36;;;;;;;16.93;15.27;;;14.60;99.90;;;;;;5019616;28;20475;-57
2021/07/10 01:15:04;;;;;;;16.00;14.60;;;14.50;99.90;;;;;;5024734;28;20482;-61
2021/07/10 01:17:31;;;;;;;15.43;13.97;;;14.50;99.90;;;;;;5039043;28;20467;-60
2021/07/10 01:20:03;;;;;;;16.20;14.63;;;14.50;99.90;;;;;;5038679;28;20884;-60
2021/07/10 01:22:34;;;;;;;15.50;14.10;;;14.50;99.90;;;;;;5038239;28;20499;-61
2021/07/10 01:25:02;;;;;;;16.13;14.53;;;14.40;99.90;;;;;;5036973;28;20914;-60
2021/07/10 01:27:33;;;;;;;17.43;15.40;;;14.40;99.90;;;;;;5038480;28;20507;-61
2021/07/10 01:30:04;;;;;;;18.37;15.47;;;14.40;99.90;;;;;;5038636;28;20486;-60
2021/07/10 01:32:33;;;;;;;17.13;15.53;;;14.40;99.90;;;;;;5038362;28;20905;-61
2021/07/10 01:35:01;;;;;;;16.37;14.90;;;14.30;99.90;;;;;;5010005;28;20521;-60
2021/07/10 01:37:28;;;;;;;17.90;16.20;;;14.30;99.90;;;;;;5024696;28;20467;-61
2021/07/10 01:39:56;;;;;;;18.10;16.20;;;14.30;99.90;;;;;;5021905;28;20471;-61
2021/07/10 01:42:24;;;;;;;16.17;14.80;;;14.30;99.90;;;;;;5022092;28;20951;-61
2021/07/10 01:45:05;;;;;;;18.10;16.50;;;14.20;99.90;;;;;;5021795;28;20960;-61
2021/07/10 01:47:33;;;;;;;18.13;16.23;;;14.20;99.90;;;;;;5019575;28;20500;-61
2021/07/10 01:50:00;;;;;;;18.17;16.67;;;14.20;99.90;;;;;;5019176;28;20920;-61
2021/07/10 01:52:30;;;;;;;16.67;15.20;;;14.10;99.90;;;;;;5019924;28;20472;-60
2021/07/10 01:54:59;;;;;;;18.00;16.40;;;14.10;99.90;;;;;;5019219;28;20464;-60
2021/07/10 01:57:32;;;;;;;16.57;15.10;;;14.00;99.90;;;;;;5023195;28;20466;-60
2021/07/10 02:00:01;;;;;;;17.13;15.53;;;14.00;99.90;;;;;;5030625;28;20471;-59
2021/07/10 02:02:28;;;;;;;16.87;15.13;;;14.10;99.90;;;;;;5038401;28;20463;-61
2021/07/10 02:04:55;;;;;;;16.67;15.10;;;14.00;99.90;;;;;;5021413;28;20485;-60
2021/07/10 02:07:22;;;;;;;15.30;14.00;;;14.00;99.90;;;;;;5031774;28;20586;-61
2021/07/10 02:09:49;;;;;;;17.30;15.60;;;14.00;99.90;;;;;;5035623;28;20779;-61
2021/07/10 02:12:18;;;;;;;17.90;15.37;;;13.90;99.90;;;;;;5036872;28;20459;-61
2021/07/10 02:14:45;;;;;;;16.30;14.10;;;13.90;99.90;;;;;;5027176;28;20514;-61
2021/07/10 02:17:12;;;;;;;15.20;13.90;;;13.90;99.90;;;;;;5016710;28;20459;-61
2021/07/10 02:19:41;;;;;;;14.47;13.17;;;13.80;99.90;;;;;;5016360;28;20917;-61
2021/07/10 02:22:08;;;;;;;14.97;13.67;;;13.80;99.90;;;;;;5017245;28;20550;-61
2021/07/10 02:24:36;;;;;;;15.33;14.03;;;13.80;99.90;;;;;;5018585;28;20460;-61
2021/07/10 02:27:04;;;;;;;16.00;14.50;;;13.80;99.90;;;;;;5032820;28;20564;-62
2021/07/10 02:29:32;;;;;;;15.20;13.90;;;13.70;99.90;;;;;;5029842;28;20542;-61
2021/07/10 02:32:00;;;;;;;16.17;13.30;;;13.70;99.90;;;;;;5026730;28;20525;-62
2021/07/10 02:34:29;;;;;;;15.00;13.70;;;13.60;99.90;;;;;;5036872;28;20467;-62
2021/07/10 02:36:56;;;;;;;13.73;12.53;;;13.60;99.90;;;;;;5037241;28;20467;-62
2021/07/10 02:39:23;;;;;;;15.13;13.70;;;13.60;99.90;;;;;;5032114;28;20522;-62
2021/07/10 02:41:50;;;;;;;14.30;12.90;;;13.60;99.90;;;;;;5036786;28;20466;-62
2021/07/10 02:44:17;;;;;;;16.17;14.60;;;13.60;99.90;;;;;;5036902;28;20497;-62
2021/07/10 02:46:46;;;;;;;16.00;14.63;;;13.60;99.90;;;;;;5036911;28;20514;-62
2021/07/10 02:49:13;;;;;;;14.83;13.53;;;13.40;99.90;;;;;;5036651;28;20825;-62
2021/07/10 02:51:40;;;;;;;15.50;14.20;;;13.40;99.90;;;;;;5037223;28;20467;-62
2021/07/10 02:54:10;;;;;;;15.43;13.97;;;13.40;99.90;;;;;;5019181;28;20463;-62
2021/07/10 02:56:37;;;;;;;16.03;14.60;;;13.40;99.90;;;;;;5036642;28;20466;-62
2021/07/10 02:59:04;;;;;;;16.40;14.50;;;13.30;99.90;;;;;;5035817;28;20472;-62
2021/07/10 03:01:31;;;;;;;14.70;13.40;;;13.30;99.90;;;;;;5035267;28;20842;-62
2021/07/10 03:04:00;;;;;;;16.47;14.87;;;13.40;99.90;;;;;;5020124;28;20495;-62
2021/07/10 03:06:27;;;;;;;17.00;15.07;;;13.30;99.90;;;;;;5021838;28;20495;-62
2021/07/10 03:08:54;;;;;;;16.40;14.97;;;13.30;99.90;;;;;;5042293;28;20469;-62
2021/07/10 03:11:21;;;;;;;16.13;14.63;;;13.30;99.90;;;;;;5017796;28;20468;-62
2021/07/10 03:13:48;;;;;;;16.33;14.93;;;13.20;99.90;;;;;;5017824;28;20464;-62
2021/07/10 03:16:15;;;;;;;16.33;14.80;;;13.20;99.90;;;;;;5017536;28;20549;-62
2021/07/10 03:18:42;;;;;;;14.80;13.40;;;13.20;99.90;;;;;;5017232;28;20471;-62
2021/07/10 03:21:11;;;;;;;15.67;14.03;;;13.10;99.90;;;;;;5017641;28;20881;-62
2021/07/10 03:23:39;;;;;;;16.50;13.83;;;13.10;99.90;;;;;;5017439;28;20558;-62
2021/07/10 03:26:06;;;;;;;14.27;13.07;;;13.10;99.90;;;;;;5017369;28;20541;-62
2021/07/10 03:28:34;;;;;;;14.37;13.00;;;13.00;99.90;;;;;;5022994;28;20499;-62
2021/07/10 03:31:01;;;;;;;15.50;13.90;;;13.10;99.90;;;;;;5037317;28;20466;-62
2021/07/10 03:33:34;;;;;;;16.83;15.30;;;13.10;99.90;;;;;;5040741;28;20521;-62
2021/07/10 03:36:05;;;;;;;16.47;15.07;;;13.00;99.90;;;;;;5022008;28;20558;-62
2021/07/10 03:38:34;;;;;;;15.93;14.43;;;13.00;99.90;;;;;;5021494;28;20538;-62
2021/07/10 03:41:01;;;;;;;16.50;14.90;;;13.00;99.90;;;;;;5021677;28;20464;-62
2021/07/10 03:43:31;;;;;;;16.17;14.57;;;13.00;99.90;;;;;;5003903;28;20562;-62
2021/07/10 03:46:02;;;;;;;15.10;13.80;;;13.00;99.90;;;;;;5021694;28;20459;-62
2021/07/10 03:48:30;;;;;;;15.57;14.00;;;13.00;99.90;;;;;;5020431;28;20499;-62
2021/07/10 03:50:57;;;;;;;15.90;14.57;;;13.00;99.90;;;;;;5021389;28;20769;-62
2021/07/10 03:53:24;;;;;;;15.27;13.77;;;13.00;99.90;;;;;;5021328;28;20526;-62
2021/07/10 03:55:53;;;;;;;16.80;15.20;;;13.00;99.90;;;;;;5021398;28;20530;-62
2021/07/10 03:58:20;;;;;;;14.90;13.67;;;13.00;99.90;;;;;;5028532;28;20471;-62
2021/07/10 04:00:47;;;;;;;16.13;14.60;;;13.00;99.90;;;;;;5038275;28;20471;-62
2021/07/10 04:03:14;;;;;;;16.53;14.50;;;13.00;99.90;;;;;;5017127;28;20896;-63
2021/07/10 04:05:43;;;;;;;16.23;14.83;;;13.00;99.90;;;;;;5025426;28;20489;-62
2021/07/10 04:08:10;;;;;;;17.13;15.73;;;13.10;99.90;;;;;;5034606;28;20473;-63
2021/07/10 04:10:38;;;;;;;17.47;15.10;;;13.00;99.90;;;;;;5025507;28;20468;-63
2021/07/10 04:13:11;;;;;;;15.80;14.40;;;13.00;99.90;;;;;;5022191;28;20459;-63
2021/07/10 04:15:38;;;;;;;15.50;13.87;;;13.00;99.90;;;;;;5024228;28;20468;-63
2021/07/10 04:18:05;;;;;;;19.83;13.70;;;13.10;99.90;;;;;;5020743;28;20460;-63
2021/07/10 04:20:32;;;;;;;16.50;15.10;;;13.10;99.90;;;;;;5020720;28;20754;-62
2021/07/10 04:22:59;;;;;;;16.63;14.57;;;13.10;99.90;;;;;;5034755;28;20572;-63
2021/07/10 04:25:27;;;;;;;17.17;15.57;;;13.20;99.90;;;;;;5039836;28;20503;-63
2021/07/10 04:27:54;;;;;;;16.73;15.23;;;13.20;99.90;;;;;;5039461;28;20823;-63
2021/07/10 04:30:22;;;;;;;17.00;15.33;;;13.30;99.90;;;;;;5038204;28;20466;-63
2021/07/10 04:32:51;;;;;;;15.70;14.20;;;13.40;99.90;;;;;;5039380;28;20478;-63
2021/07/10 04:35:19;;;;;;;17.27;15.73;;;13.40;99.90;;;;;;5039381;28;20471;-63
2021/07/10 04:37:47;;;;;;;17.53;15.87;;;13.50;99.90;;;;;;5039685;28;20474;-63
2021/07/10 04:40:14;;;;;;;17.17;15.47;;;13.60;99.90;;;;;;5026443;28;20468;-63
2021/07/10 04:42:43;;;;;;;17.03;15.50;;;13.70;99.90;;;;;;5019589;28;20476;-63
2021/07/10 04:45:15;;;;;;;16.70;15.23;;;13.70;99.90;;;;;;5020918;28;20468;-63
2021/07/10 04:47:44;;;;;;;17.07;15.47;;;13.80;99.90;;;;;;5033143;28;20491;-63
2021/07/10 04:50:12;;;;;;;17.70;16.20;;;13.80;99.90;;;;;;5038619;28;20526;-63
2021/07/10 04:52:42;;;;;;;18.17;16.40;;;13.80;99.90;;;;;;5039489;28;20517;-63
2021/07/10 04:55:14;;;;;;;17.53;15.83;;;13.90;99.90;;;;;;5038549;28;20532;-63
2021/07/10 04:57:41;;;;;;;17.77;16.17;;;14.00;99.90;;;;;;5039550;28;20520;-63
2021/07/10 05:00:10;;;;;;;17.17;15.67;;;14.10;99.90;;;;;;5038917;28;20520;-63
2021/07/10 05:02:37;;;;;;;17.73;16.03;;;14.20;99.90;;;;;;5036606;28;20525;-63
2021/07/10 05:05:07;;;;;;;18.30;16.53;;;14.20;99.90;;;;;;5017120;28;20811;-63
2021/07/10 05:07:36;;;;;;;18.10;16.40;;;14.40;99.90;;;;;;5019531;28;20492;-63
2021/07/10 05:10:06;;;;;;;17.67;16.10;;;14.40;99.90;;;;;;5019791;28;20518;-63
2021/07/10 05:12:34;;;;;;;18.70;16.30;;;14.50;99.90;;;;;;5019776;28;20479;-63
2021/07/10 05:15:01;;;;;;;18.57;16.80;;;14.60;99.90;;;;;;5019454;28;20464;-63
2021/07/10 05:17:28;;;;;;;18.13;16.63;;;14.60;99.90;;;;;;5019994;28;20522;-63
2021/07/10 05:19:55;;;;;;;17.60;15.90;;;14.70;99.90;;;;;;5019886;28;20815;-63
2021/07/10 05:22:25;;;;;;;18.97;17.37;;;14.70;99.90;;;;;;5002945;28;20480;-63
2021/07/10 05:24:52;;;;;;;16.90;15.43;;;14.80;99.90;;;;;;5020018;28;20468;-63
2021/07/10 05:27:19;;;;;;;18.77;17.07;;;14.90;99.90;;;;;;5019707;28;20463;-63
2021/07/10 05:29:46;;;;;;;20.03;18.23;;;14.90;99.90;;;;;;5025325;28;20471;-63
2021/07/10 05:32:15;;;;;;;18.60;16.80;;;15.00;99.90;;;;;;5017879;28;20562;-63
2021/07/10 05:34:43;;;;;;;19.70;17.93;;;15.10;99.90;;;;;;5018760;28;20475;-64
2021/07/10 05:37:11;;;;;;;21.30;19.43;;;15.30;99.90;;;;;;5018213;28;20472;-64
2021/07/10 05:39:40;;;;;;;21.67;19.57;;;15.40;99.90;;;;;;5019488;28;20471;-64
2021/07/10 05:42:11;;;;;;;21.07;19.13;;;15.50;99.90;;;;;;5018704;28;20981;-64
2021/07/10 05:44:38;;;;;;;22.93;20.80;;;15.60;99.90;;;;;;5019528;28;20758;-63
2021/07/10 05:47:06;;;;;;;21.50;19.50;;;15.70;99.90;;;;;;5019159;28;20438;-64
2021/07/10 05:49:33;;;;;;;22.47;20.47;;;15.80;99.90;;;;;;5019296;28;20475;-63
2021/07/10 05:52:02;;;;;;;21.70;19.40;;;16.00;99.90;;;;;;5019096;28;20468;-63
2021/07/10 05:54:29;;;;;;;19.60;17.80;;;16.40;99.90;;;;;;5019059;28;20472;-63
2021/07/10 05:56:58;;;;;;;18.27;16.77;;;16.70;99.90;;;;;;5018657;28;20476;-62
2021/07/10 05:59:25;;;;;;;18.80;17.30;;;17.20;99.90;;;;;;5029471;28;20868;-62
2021/07/10 06:01:52;;;;;;;18.10;16.40;;;17.60;99.90;;;;;;5037270;28;20475;-62
2021/07/10 06:04:19;;;;;;;17.27;15.67;;;17.70;99.90;;;;;;5019244;28;20468;-62
2021/07/10 06:06:47;;;;;;;16.83;15.33;;;18.00;99.90;;;;;;5018370;28;20960;-62
2021/07/10 06:09:14;;;;;;;17.70;16.10;;;18.10;99.90;;;;;;5017554;28;20515;-62
2021/07/10 06:11:45;;;;;;;17.17;15.77;;;18.20;99.90;;;;;;5018930;28;20467;-62
2021/07/10 06:14:14;;;;;;;17.60;16.20;;;18.30;99.90;;;;;;5020256;28;20443;-62
2021/07/10 06:16:41;;;;;;;17.47;15.87;;;18.40;99.90;;;;;;5037093;28;20474;-61
2021/07/10 06:19:11;;;;;;;18.70;17.10;;;18.40;99.90;;;;;;5034389;28;20474;-61
2021/07/10 06:21:49;;;;;;;18.20;16.50;;;18.60;99.90;;;;;;5033333;28;20467;-61
2021/07/10 06:24:16;;;;;;;17.73;16.00;;;18.60;99.90;;;;;;5034940;28;20434;-61
2021/07/10 06:26:43;;;;;;;16.20;14.70;;;18.50;99.90;;;;;;5037333;28;20470;-61
2021/07/10 06:29:12;;;;;;;17.80;16.30;;;18.20;99.90;;;;;;5037774;28;20765;-61
2021/07/10 06:31:40;;;;;;;17.13;15.53;;;18.40;99.90;;;;;;5027624;28;20468;-61
2021/07/10 06:34:12;;;;;;;18.20;16.70;;;18.40;99.90;;;;;;5036869;28;20471;-61
2021/07/10 06:36:40;;;;;;;17.53;16.00;;;18.50;99.90;;;;;;5019826;28;20506;-61
2021/07/10 06:39:08;;;;;;;16.77;15.27;;;18.50;99.90;;;;;;5018600;28;20869;-61
2021/07/10 06:41:36;;;;;;;17.33;15.80;;;18.70;99.90;;;;;;5019536;28;20479;-61
2021/07/10 06:44:04;;;;;;;17.63;16.10;;;18.80;99.90;;;;;;5017891;28;20508;-61
2021/07/10 06:46:31;;;;;;;18.87;17.17;;;18.90;99.90;;;;;;5018181;28;20744;-60
2021/07/10 06:49:10;;;;;;;17.70;16.13;;;18.80;99.90;;;;;;5018136;28;20500;-60
2021/07/10 06:51:38;;;;;;;18.67;16.80;;;19.00;99.90;;;;;;5018542;28;20958;-60
2021/07/10 06:54:05;;;;;;;18.73;16.80;;;19.00;99.90;;;;;;5018466;28;20475;-60
2021/07/10 06:56:32;;;;;;;17.23;15.63;;;19.20;99.90;;;;;;5018221;28;20811;-60
2021/07/10 06:58:59;;;;;;;17.17;15.53;;;19.30;99.90;;;;;;5023753;28;20517;-60
2021/07/10 07:01:28;;;;;;;16.80;15.40;;;19.40;99.90;;;;;;5036949;28;20442;-59
2021/07/10 07:03:56;;;;;;;16.30;14.70;;;19.50;99.90;;;;;;5019519;28;20562;-58
2021/07/10 07:06:24;;;;;;;16.60;14.97;;;19.70;99.90;;;;;;5016721;28;20517;-57
2021/07/10 07:08:51;;;;;;;16.17;14.83;;;19.80;99.90;;;;;;5017537;28;20503;-59
2021/07/10 07:11:18;;;;;;;15.53;13.93;;;20.10;99.90;;;;;;5018010;28;20472;-57
2021/07/10 07:13:45;;;;;;;17.47;15.53;;;20.30;99.90;;;;;;5017490;28;20749;-55
2021/07/10 07:16:12;;;;;;;16.13;14.63;;;20.40;99.90;;;;;;5017519;28;20472;-56
2021/07/10 07:18:41;;;;;;;15.90;14.53;;;20.60;99.90;;;;;;5017937;28;20463;-59
2021/07/10 07:21:08;;;;;;;15.47;14.13;;;20.80;99.90;;;;;;5018199;28;20471;-59
2021/07/10 07:23:37;;;;;;;15.10;13.77;;;21.20;99.90;;;;;;5017428;28;20470;-57
2021/07/10 07:26:04;;;;;;;16.53;14.33;;;21.50;99.90;;;;;;5017548;28;20468;-59
2021/07/10 07:28:35;;;;;;;15.20;13.80;;;21.50;99.90;;;;;;5028644;28;20498;-58
2021/07/10 07:31:02;;;;;;;15.33;14.03;;;21.70;99.90;;;;;;5017429;28;20499;-59
2021/07/10 07:33:29;;;;;;;14.97;13.67;;;21.70;99.90;;;;;;5017447;28;20517;-57
2021/07/10 07:35:56;;;;;;;14.80;13.43;;;21.80;99.90;;;;;;5017478;28;20526;-59
2021/07/10 07:38:24;;;;;;;14.70;13.30;;;21.90;99.90;;;;;;5017711;28;20452;-56
2021/07/10 07:40:52;;;;;;;15.30;14.00;;;22.00;99.90;;;;;;5017596;28;20468;-58
2021/07/10 07:43:19;;;;;;;15.13;13.63;;;22.30;99.90;;;;;;5017683;28;20881;-57
2021/07/10 07:45:46;;;;;;;15.17;13.53;;;22.40;99.90;;;;;;5017746;28;20472;-55
2021/07/10 07:48:13;;;;;;;13.50;12.20;;;22.20;99.90;;;;;;5017296;28;20492;-58
2021/07/10 07:50:40;;;;;;;15.60;12.87;;;22.20;99.90;;;;;;5018776;28;20528;-55
2021/07/10 07:53:07;;;;;;;13.03;11.83;;;22.30;99.90;;;;;;5018406;28;20468;-57
2021/07/10 07:55:36;;;;;;;12.87;11.30;;;22.60;99.90;;;;;;5016942;28;20833;-59
2021/07/10 07:58:08;;;;;;;13.93;12.53;;;22.80;99.90;;;;;;5018181;28;20823;-57
2021/07/10 08:00:35;;;;;;;13.63;12.33;;;23.30;99.90;;;;;;5035737;28;20818;-59
2021/07/10 08:03:05;;;;;;;13.13;12.03;;;23.60;99.90;;;;;;5028179;28;20542;-59
2021/07/10 08:05:32;;;;;;;12.63;11.40;;;23.70;99.90;;;;;;5016190;28;20534;-58
2021/07/10 08:07:59;;;;;;;11.70;10.63;;;23.50;99.90;;;;;;5017851;28;20472;-58
2021/07/10 08:10:26;;;;;;;11.87;10.80;;;23.60;99.60;;;;;;5022159;28;20464;-54
2021/07/10 08:12:59;;;;;;;11.17;10.27;;;23.90;99.90;;;;;;5017197;28;20896;-55
2021/07/10 08:15:29;;;;;;;10.83;9.90;;;24.00;99.90;;;;;;5016973;28;20776;-56
2021/07/10 08:17:56;;;;;;;11.67;10.60;;;24.10;98.80;;;;;;5017809;28;20472;-55
2021/07/10 08:20:26;;;;;;;11.70;10.60;;;24.30;99.40;;;;;;5020232;28;20528;-56
2021/07/10 08:22:54;;;;;;;15.63;10.30;;;24.50;95.10;;;;;;5020073;28;20491;-54
2021/07/10 08:25:25;;;;;;;10.17;9.27;;;24.50;97.80;;;;;;5020440;28;20471;-59
2021/07/10 08:27:52;;;;;;;9.03;8.30;;;24.30;94.90;;;;;;5021342;28;20464;-55
2021/07/10 08:30:25;;;;;;;10.10;9.30;;;24.10;96.30;;;;;;5038398;28;20553;-58
2021/07/10 08:32:55;;;;;;;10.57;9.67;;;24.30;95.30;;;;;;5040047;28;20481;-57
2021/07/10 08:35:25;;;;;;;9.03;8.20;;;24.60;96.30;;;;;;5038875;28;20471;-57
2021/07/10 08:37:52;;;;;;;9.83;8.83;;;24.50;95.60;;;;;;5039817;28;20804;-55
2021/07/10 08:40:21;;;;;;;10.60;9.60;;;24.30;95.50;;;;;;5020902;28;20464;-58
2021/07/10 08:42:48;;;;;;;10.23;9.33;;;24.50;93.50;;;;;;5026036;28;20517;-57
2021/07/10 08:45:16;;;;;;;10.40;9.47;;;24.40;94.30;;;;;;5027974;28;20467;-56
2021/07/10 08:47:45;;;;;;;9.50;8.60;;;24.50;97.20;;;;;;5021441;28;20939;-57
2021/07/10 08:50:16;;;;;;;8.47;7.70;;;24.40;93.10;;;;;;5019733;28;20507;-56
2021/07/10 08:52:43;;;;;;;8.87;8.17;;;24.50;93.80;;;;;;5020110;28;20475;-54
2021/07/10 08:55:12;;;;;;;9.20;8.40;;;24.40;93.00;;;;;;5019722;28;20468;-53
2021/07/10 08:57:42;;;;;;;9.27;8.33;;;24.30;93.80;;;;;;5020435;28;20873;-52
2021/07/10 09:00:12;;;;;;;9.43;8.53;;;24.10;93.90;;;;;;5034060;28;20479;-49
2021/07/10 09:02:42;;;;;;;8.73;7.93;;;24.00;93.80;;;;;;5038966;28;20549;-52
2021/07/10 09:05:13;;;;;;;9.10;8.40;;;24.10;92.90;;;;;;5020226;28;20911;-56
2021/07/10 09:08:16;;;;;;;9.13;8.43;;;24.00;95.90;;;;;;5027045;28;20968;-56
2021/07/10 09:10:45;;;;;;;9.40;8.50;;;24.30;94.20;;;;;;5020393;28;20468;-53
2021/07/10 09:13:12;;;;;;;9.00;7.90;;;24.10;91.00;;;;;;5032196;28;20911;-52
2021/07/10 09:15:40;;;;;;;9.00;8.30;;;24.10;92.70;;;;;;5023346;28;20776;-52
2021/07/10 09:18:08;;;;;;;8.20;7.20;;;24.20;93.50;;;;;;5019540;28;20848;-54
2021/07/10 09:20:37;;;;;;;8.63;7.70;;;24.70;92.80;;;;;;5021433;28;20530;-50
2021/07/10 09:23:22;;;;;;;8.10;7.10;;;24.90;91.80;;;;;;5035060;28;20498;-52
2021/07/10 09:25:50;;;;;;;8.80;8.00;;;25.20;90.40;;;;;;5022916;28;20521;-52
2021/07/10 09:28:26;;;;;;;8.47;7.70;;;25.00;87.80;;;;;;5019293;28;20550;-53
2021/07/10 09:30:55;;;;;;;8.43;7.63;;;24.70;91.30;;;;;;5018739;28;20463;-52
2021/07/10 09:33:24;;;;;;;8.70;8.03;;;24.80;89.50;;;;;;5032141;28;20946;-54
2021/07/10 09:35:55;;;;;;;8.00;7.33;;;25.00;90.70;;;;;;5018862;28;20522;-53
2021/07/10 09:38:25;;;;;;;9.00;8.20;;;25.00;85.30;;;;;;5025475;28;20509;-53
2021/07/10 09:41:13;;;;;;;8.50;7.80;;;25.00;89.00;;;;;;5031371;28;20471;-54
2021/07/10 09:43:40;;;;;;;10.80;7.80;;;25.20;83.90;;;;;;5020140;28;20469;-55
2021/07/10 09:46:10;;;;;;;8.37;7.67;;;25.30;87.10;;;;;;5020568;28;20468;-54
2021/07/10 09:48:40;;;;;;;8.53;7.77;;;25.30;85.00;;;;;;5025788;28;20496;-52
2021/07/10 09:51:18;;;;;;;8.50;7.63;;;25.20;86.00;;;;;;5022057;28;20503;-55
2021/07/10 09:54:02;;;;;;;8.40;7.80;;;25.20;83.40;;;;;;5024618;28;20470;-55
2021/07/10 09:56:36;;;;;;;7.93;7.33;;;24.80;89.50;;;;;;5024485;28;20495;-53
2021/07/10 09:59:20;;;;;;;8.30;7.60;;;25.00;90.30;;;;;;5027280;28;20463;-48
2021/07/10 10:01:51;;;;;;;7.83;7.03;;;25.20;91.40;;;;;;5028395;28;20970;-51
2021/07/10 10:04:26;;;;;;;8.93;7.80;;;25.60;86.10;;;;;;5012827;28;20462;-54
2021/07/10 10:06:55;;;;;;;9.00;8.30;;;25.50;82.10;;;;;;5024299;28;20517;-50
2021/07/10 10:09:23;;;;;;;7.20;6.50;;;25.40;82.40;;;;;;5020199;28;20495;-55
2021/07/10 10:11:55;;;;;;;7.77;6.80;;;25.40;80.60;;;;;;5020638;28;20820;-56
2021/07/10 10:14:23;;;;;;;8.13;7.53;;;25.50;84.80;;;;;;5022561;28;20472;-54
2021/07/10 10:16:54;;;;;;;8.17;7.47;;;25.40;84.20;;;;;;5022715;28;21023;-52
2021/07/10 10:19:23;;;;;;;9.00;8.20;;;25.30;83.70;;;;;;5025674;28;20514;-54
2021/07/10 10:21:52;;;;;;;7.53;6.93;;;25.30;80.60;;;;;;5019494;28;20456;-56
2021/07/10 10:24:23;;;;;;;8.07;7.37;;;25.30;79.10;;;;;;5021386;28;20774;-56
2021/07/10 10:26:52;;;;;;;7.30;6.67;;;25.30;81.30;;;;;;5020381;28;20794;-52
2021/07/10 10:29:25;;;;;;;7.47;6.80;;;25.40;82.80;;;;;;5025481;28;20530;-56
2021/07/10 10:31:53;;;;;;;8.03;7.27;;;25.50;80.30;;;;;;5026612;28;20467;-51
2021/07/10 10:34:20;;;;;;;6.93;5.73;;;25.00;77.40;;;;;;5018871;28;20534;-56
2021/07/10 10:36:50;;;;;;;7.70;7.10;;;24.80;81.70;;;;;;5020803;28;20897;-56
2021/07/10 10:39:19;;;;;;;7.07;6.47;;;24.70;78.20;;;;;;5018623;28;20495;-56
2021/07/10 10:41:50;;;;;;;7.33;6.63;;;24.50;82.00;;;;;;5021164;28;20465;-56
2021/07/10 10:44:19;;;;;;;7.10;6.50;;;24.80;82.00;;;;;;5018462;28;20467;-56
2021/07/10 10:46:51;;;;;;;6.83;6.37;;;24.90;81.90;;;;;;5020994;28;20526;-56
2021/07/10 10:49:45;;;;;;;7.40;6.90;;;24.60;81.50;;;;;;5020351;28;20503;-55
2021/07/10 10:52:29;;;;;;;6.47;5.97;;;24.80;83.50;;;;;;5020015;28;20468;-55
2021/07/10 10:54:58;;;;;;;6.60;6.07;;;25.00;81.50;;;;;;5031726;28;20918;-48
2021/07/10 10:57:38;;;;;;;6.23;5.70;;;24.80;80.60;;;;;;5029818;28;20673;-56
2021/07/10 11:41:08;;;;;;;7.13;6.63;;;27.30;62.00;;;;;;5078997;27;20599;-51
2021/07/10 11:43:39;;;;;;;5.60;5.17;;;27.40;60.80;;;;;;5078967;28;20803;-55
2021/07/10 11:46:08;;;;;;;6.07;5.63;;;27.30;61.90;;;;;;5089000;28;22057;-51
2021/07/10 11:48:35;;;;;;;6.43;5.80;;;26.90;57.50;;;;;;5087387;28;20465;-53
2021/07/10 11:51:11;;;;;;;6.10;5.60;;;27.20;61.50;;;;;;5079657;28;20815;-47
2021/07/10 11:53:39;;;;;;;5.47;5.07;;;26.90;60.20;;;;;;5079182;28;20454;-55
2021/07/10 11:56:11;;;;;;;5.33;4.97;;;26.80;60.80;;;;;;5077530;28;20472;-56
2021/07/10 11:58:47;;;;;;;5.27;4.90;;;27.10;57.20;;;;;;5079372;28;20884;-54
2021/07/10 12:01:14;;;;;;;5.43;5.03;;;27.70;59.50;;;;;;5093439;28;20830;-56
2021/07/10 12:03:41;;;;;;;5.80;5.33;;;28.80;55.90;;;;;;5075924;28;20852;-56
2021/07/10 12:06:08;;;;;;;5.93;5.50;;;29.40;54.60;;;;;;5083902;28;20477;-57
2021/07/10 12:08:36;;;;;;;6.17;5.77;;;29.60;52.60;;;;;;5093172;28;21010;-54
2021/07/10 12:11:06;;;;;;;6.20;5.80;;;29.40;52.70;;;;;;5079702;28;20458;-57
2021/07/10 12:13:34;;;;;;;5.80;5.40;;;28.30;53.50;;;;;;5085209;28;20461;-52
2021/07/10 12:16:04;;;;;;;11.50;5.73;;;27.80;53.30;;;;;;5077305;28;20504;-55
2021/07/10 12:18:35;;;;;;;5.37;4.87;;;28.10;56.00;;;;;;5072944;28;20440;-52
2021/07/10 12:21:05;;;;;;;5.67;5.30;;;28.20;54.90;;;;;;5074784;28;20497;-52
2021/07/10 12:23:34;;;;;;;5.83;5.20;;;27.70;54.90;;;;;;5074218;28;20819;-54
2021/07/10 12:26:03;;;;;;;5.93;5.43;;;27.40;56.60;;;;;;5077564;28;21277;-52
2021/07/10 12:28:38;;;;;;;5.60;5.10;;;27.20;55.90;;;;;;5076361;28;20511;-57
2021/07/10 12:31:13;;;;;;;6.20;5.70;;;27.20;56.20;;;;;;5089686;28;20464;-54
2021/07/10 12:33:44;;;;;;;6.30;5.77;;;27.40;57.40;;;;;;5092029;28;20858;-54
2021/07/10 12:36:15;;;;;;;6.23;5.83;;;26.90;55.60;;;;;;5091932;28;20513;-54
2021/07/10 12:39:08;;;;;;;6.83;6.43;;;26.70;57.10;;;;;;5088800;28;20462;-51
2021/07/10 12:41:45;;;;;;;6.13;5.63;;;26.80;57.90;;;;;;5087421;28;20704;-54
2021/07/10 12:44:17;;;;;;;5.70;4.87;;;26.10;58.00;;;;;;5092713;28;20468;-53
2021/07/10 12:46:59;;;;;;;6.93;5.70;;;26.30;58.90;;;;;;5092970;28;20471;-52
2021/07/10 12:49:29;;;;;;;8.27;7.60;;;27.00;60.60;;;;;;5089858;28;20889;-53
2021/07/10 12:51:57;;;;;;;5.70;5.20;;;27.90;56.60;;;;;;5082819;28;20893;-54
2021/07/10 12:54:49;;;;;;;5.87;5.47;;;28.30;55.20;;;;;;5079210;28;20499;-54
2021/07/10 12:57:19;;;;;;;5.43;4.93;;;28.50;54.20;;;;;;5074570;28;20480;-53
2021/07/10 12:59:53;;;;;;;5.47;5.07;;;28.70;53.60;;;;;;5074018;28;20489;-52
2021/07/10 13:40:21;;;;;;;5.20;4.90;;;26.10;56.20;;;;;;3840691;22;20483;-55
2021/07/10 13:42:57;;;;;;;6.60;6.20;;;26.00;57.50;;;;;;5039970;28;20521;-51
2021/07/10 13:45:24;;;;;;;6.27;5.87;;;25.90;58.00;;;;;;5039421;28;20770;-54
2021/07/10 13:48:11;;;;;;;5.93;5.53;;;25.40;57.60;;;;;;5038673;28;20894;-54
2021/07/10 13:50:38;;;;;;;5.77;5.27;;;25.30;59.20;;;;;;5052619;28;20458;-54
2021/07/10 13:53:20;;;;;;;6.50;5.90;;;25.40;58.30;;;;;;5058377;28;20862;-57
2021/07/10 13:55:48;;;;;;;7.10;6.60;;;25.40;59.30;;;;;;5053865;28;20552;-49
2021/07/10 13:58:27;;;;;;;7.20;5.43;;;25.30;59.60;;;;;;5049011;28;20521;-51
2021/07/10 14:00:54;;;;;;;6.23;5.83;;;25.20;59.80;;;;;;5043112;28;20650;-53
2021/07/10 14:03:21;;;;;;;5.87;5.47;;;25.00;60.00;;;;;;5045971;28;20467;-54